sensor_id;sensor_type;location;lat;lon;timestamp;pressure;altitude;pressure_sealevel;temperature;humidity
55916;BME280;41826;53.246;-6.670;2022-07-10T00:00:10;102310.44;;;17.07;100.00
55916;BME280;41826;53.246;-6.670;2022-07-10T00:02:38;102304.03;;;17.00;100.00
55916;BME280;41826;53.246;-6.670;2022-07-10T00:05:04;102304.03;;;17.00;100.00
55916;BME280;41826;53.246;-6.670;2022-07-10T00:07:30;102312.16;;;16.88;100.00
55916;BME280;41826;53.246;-6.670;2022-07-10T00:09:55;102303.00;;;16.83;100.00
55916;BME280;41826;53.246;-6.670;2022-07-10T00:12:21;102299.94;;;16.78;100.00
55916;BME280;41826;53.246;-6.670;2022-07-10T00:14:46;102295.03;;;16.73;100.00
55916;BME280;41826;53.246;-6.670;2022-07-10T00:17:12;102299.66;;;16.71;100.00
55916;BME280;41826;53.246;-6.670;2022-07-10T00:19:37;102297.13;;;16.89;100.00
55916;BME280;41826;53.246;-6.670;2022-07-10T00:22:03;102301.03;;;16.75;100.00
55916;BME280;41826;53.246;-6.670;2022-07-10T00:24:28;102295.22;;;16.62;100.00
55916;BME280;41826;53.246;-6.670;2022-07-10T00:26:54;102299.13;;;16.48;100.00
55916;BME280;41826;53.246;-6.670;2022-07-10T00:29:19;102299.44;;;16.45;100.00
55916;BME280;41826;53.246;-6.670;2022-07-10T00:31:45;102296.66;;;16.46;100.00
55916;BME280;41826;53.246;-6.670;2022-07-10T00:34:10;102297.38;;;16.29;100.00
55916;BME280;41826;53.246;-6.670;2022-07-10T00:36:36;102293.47;;;16.33;100.00
55916;BME280;41826;53.246;-6.670;2022-07-10T00:39:02;102301.97;;;16.27;100.00
55916;BME280;41826;53.246;-6.670;2022-07-10T00:41:28;102299.06;;;16.01;100.00
55916;BME280;41826;53.246;-6.670;2022-07-10T00:43:58;102308.97;;;15.99;100.00
55916;BME280;41826;53.246;-6.670;2022-07-10T00:46:25;102306.44;;;15.97;100.00
55916;BME280;41826;53.246;-6.670;2022-07-10T00:48:50;102308.41;;;15.95;100.00
55916;BME280;41826;53.246;-6.670;2022-07-10T00:51:18;102294.88;;;15.98;100.00
55916;BME280;41826;53.246;-6.670;2022-07-10T00:53:45;102293.47;;;15.94;100.00
55916;BME280;41826;53.246;-6.670;2022-07-10T00:56:12;102293.06;;;15.89;100.00
55916;BME280;41826;53.246;-6.670;2022-07-10T00:58:39;102289.88;;;15.86;100.00
55916;BME280;41826;53.246;-6.670;2022-07-10T01:01:05;102293.34;;;15.76;100.00
55916;BME280;41826;53.246;-6.670;2022-07-10T01:03:31;102283.97;;;15.63;100.00
55916;BME280;41826;53.246;-6.670;2022-07-10T01:05:57;102279.91;;;15.58;100.00
55916;BME280;41826;53.246;-6.670;2022-07-10T01:08:23;102288.00;;;15.47;100.00
55916;BME280;41826;53.246;-6.670;2022-07-10T01:10:49;102285.91;;;15.60;100.00
55916;BME280;41826;53.246;-6.670;2022-07-10T01:13:15;102280.63;;;15.60;100.00
55916;BME280;41826;53.246;-6.670;2022-07-10T01:15:40;102279.50;;;15.53;100.00
55916;BME280;41826;53.246;-6.670;2022-07-10T01:18:06;102280.19;;;15.46;100.00
55916;BME280;41826;53.246;-6.670;2022-07-10T01:20:32;102280.84;;;15.38;100.00
55916;BME280;41826;53.246;-6.670;2022-07-10T01:22:59;102277.69;;;15.54;100.00
55916;BME280;41826;53.246;-6.670;2022-07-10T01:25:25;102266.81;;;15.47;100.00
55916;BME280;41826;53.246;-6.670;2022-07-10T01:27:51;102272.38;;;15.34;100.00
55916;BME280;41826;53.246;-6.670;2022-07-10T01:30:17;102275.00;;;15.34;100.00
55916;BME280;41826;53.246;-6.670;2022-07-10T01:32:44;102274.16;;;15.34;100.00
55916;BME280;41826;53.246;-6.670;2022-07-10T01:35:10;102272.31;;;15.15;100.00
55916;BME280;41826;53.246;-6.670;2022-07-10T01:37:37;102273.69;;;15.09;100.00
55916;BME280;41826;53.246;-6.670;2022-07-10T01:40:03;102272.72;;;15.10;100.00
55916;BME280;41826;53.246;-6.670;2022-07-10T01:42:28;102270.41;;;15.36;100.00
55916;BME280;41826;53.246;-6.670;2022-07-10T01:44:54;102270.69;;;15.43;100.00
55916;BME280;41826;53.246;-6.670;2022-07-10T01:47:20;102262.78;;;15.53;100.00
55916;BME280;41826;53.246;-6.670;2022-07-10T01:49:50;102258.03;;;15.56;100.00
55916;BME280;41826;53.246;-6.670;2022-07-10T01:52:15;102258.28;;;15.34;100.00
55916;BME280;41826;53.246;-6.670;2022-07-10T01:54:41;102256.91;;;15.39;100.00
55916;BME280;41826;53.246;-6.670;2022-07-10T01:57:06;102251.31;;;15.33;100.00
55916;BME280;41826;53.246;-6.670;2022-07-10T01:59:31;102235.59;;;15.51;100.00
55916;BME280;41826;53.246;-6.670;2022-07-10T02:01:57;102197.31;;;15.84;100.00
55916;BME280;41826;53.246;-6.670;2022-07-10T02:04:22;102174.69;;;16.09;100.00
55916;BME280;41826;53.246;-6.670;2022-07-10T02:07:09;102153.34;;;16.20;100.00
55916;BME280;41826;53.246;-6.670;2022-07-10T02:09:34;102165.03;;;16.18;100.00
55916;BME280;41826;53.246;-6.670;2022-07-10T02:12:00;102176.09;;;16.13;100.00
55916;BME280;41826;53.246;-6.670;2022-07-10T02:14:25;102176.53;;;15.99;100.00
55916;BME280;41826;53.246;-6.670;2022-07-10T02:16:51;102180.72;;;15.63;100.00
55916;BME280;41826;53.246;-6.670;2022-07-10T02:19:16;102185.19;;;15.52;100.00
55916;BME280;41826;53.246;-6.670;2022-07-10T02:21:42;102182.25;;;15.36;100.00
55916;BME280;41826;53.246;-6.670;2022-07-10T02:24:07;102189.22;;;15.37;100.00
55916;BME280;41826;53.246;-6.670;2022-07-10T02:26:33;102199.59;;;15.00;100.00
55916;BME280;41826;53.246;-6.670;2022-07-10T02:28:58;102209.91;;;15.03;100.00
55916;BME280;41826;53.246;-6.670;2022-07-10T02:31:23;102210.47;;;14.97;100.00
55916;BME280;41826;53.246;-6.670;2022-07-10T02:33:49;102211.25;;;14.87;100.00
55916;BME280;41826;53.246;-6.670;2022-07-10T02:36:14;102216.78;;;14.74;100.00
55916;BME280;41826;53.246;-6.670;2022-07-10T02:38:40;102217.66;;;14.85;100.00
55916;BME280;41826;53.246;-6.670;2022-07-10T02:41:05;102214.88;;;14.96;100.00
55916;BME280;41826;53.246;-6.670;2022-07-10T02:43:30;102208.91;;;14.94;100.00
55916;BME280;41826;53.246;-6.670;2022-07-10T02:45:56;102209.88;;;14.93;100.00
55916;BME280;41826;53.246;-6.670;2022-07-10T02:48:21;102201.22;;;14.91;100.00
55916;BME280;41826;53.246;-6.670;2022-07-10T02:50:47;102199.97;;;14.85;100.00
55916;BME280;41826;53.246;-6.670;2022-07-10T02:53:12;102196.94;;;14.90;100.00
55916;BME280;41826;53.246;-6.670;2022-07-10T02:55:37;102194.41;;;14.88;100.00
55916;BME280;41826;53.246;-6.670;2022-07-10T02:58:03;102196.19;;;14.78;100.00
55916;BME280;41826;53.246;-6.670;2022-07-10T03:00:28;102197.06;;;14.88;100.00
55916;BME280;41826;53.246;-6.670;2022-07-10T03:02:55;102171.19;;;14.92;100.00
55916;BME280;41826;53.246;-6.670;2022-07-10T03:05:22;102170.63;;;14.98;100.00
55916;BME280;41826;53.246;-6.670;2022-07-10T03:07:48;102167.72;;;15.01;100.00
55916;BME280;41826;53.246;-6.670;2022-07-10T03:10:13;102152.00;;;15.00;100.00
55916;BME280;41826;53.246;-6.670;2022-07-10T03:12:38;102164.97;;;14.62;100.00
55916;BME280;41826;53.246;-6.670;2022-07-10T03:15:05;102163.75;;;14.45;100.00
55916;BME280;41826;53.246;-6.670;2022-07-10T03:17:31;102162.31;;;14.31;100.00
55916;BME280;41826;53.246;-6.670;2022-07-10T03:19:56;102165.94;;;14.30;100.00
55916;BME280;41826;53.246;-6.670;2022-07-10T03:22:22;102168.09;;;14.25;100.00
55916;BME280;41826;53.246;-6.670;2022-07-10T03:24:47;102171.69;;;14.15;100.00
55916;BME280;41826;53.246;-6.670;2022-07-10T03:27:13;102170.19;;;13.80;100.00
55916;BME280;41826;53.246;-6.670;2022-07-10T03:29:39;102176.78;;;13.85;100.00
55916;BME280;41826;53.246;-6.670;2022-07-10T03:32:06;102173.25;;;13.96;100.00
55916;BME280;41826;53.246;-6.670;2022-07-10T03:34:31;102172.97;;;13.99;100.00
55916;BME280;41826;53.246;-6.670;2022-07-10T03:37:01;102183.47;;;13.90;100.00
55916;BME280;41826;53.246;-6.670;2022-07-10T03:39:28;102172.59;;;13.83;100.00
55916;BME280;41826;53.246;-6.670;2022-07-10T03:41:54;102179.34;;;13.97;100.00
55916;BME280;41826;53.246;-6.670;2022-07-10T03:44:19;102182.97;;;13.96;100.00
55916;BME280;41826;53.246;-6.670;2022-07-10T03:46:45;102182.53;;;13.91;100.00
55916;BME280;41826;53.246;-6.670;2022-07-10T03:49:10;102183.72;;;13.86;100.00
55916;BME280;41826;53.246;-6.670;2022-07-10T03:51:35;102183.81;;;13.96;100.00
55916;BME280;41826;53.246;-6.670;2022-07-10T03:54:01;102179.09;;;14.00;100.00
55916;BME280;41826;53.246;-6.670;2022-07-10T03:56:26;102170.78;;;13.83;100.00
55916;BME280;41826;53.246;-6.670;2022-07-10T03:59:10;102171.13;;;13.90;100.00
55916;BME280;41826;53.246;-6.670;2022-07-10T04:01:36;102169.38;;;13.79;100.00
55916;BME280;41826;53.246;-6.670;2022-07-10T04:04:01;102170.97;;;13.92;100.00
55916;BME280;41826;53.246;-6.670;2022-07-10T04:06:28;102173.25;;;13.96;100.00
55916;BME280;41826;53.246;-6.670;2022-07-10T04:08:53;102162.13;;;13.93;100.00
55916;BME280;41826;53.246;-6.670;2022-07-10T04:11:19;102159.94;;;13.98;100.00
55916;BME280;41826;53.246;-6.670;2022-07-10T04:13:44;102166.66;;;14.12;100.00
55916;BME280;41826;53.246;-6.670;2022-07-10T04:16:09;102167.84;;;13.98;100.00
55916;BME280;41826;53.246;-6.670;2022-07-10T04:18:42;102164.41;;;14.07;100.00
55916;BME280;41826;53.246;-6.670;2022-07-10T04:21:07;102167.66;;;14.20;100.00
55916;BME280;41826;53.246;-6.670;2022-07-10T04:23:33;102164.13;;;14.31;100.00
55916;BME280;41826;53.246;-6.670;2022-07-10T04:26:00;102167.16;;;14.26;100.00
55916;BME280;41826;53.246;-6.670;2022-07-10T04:28:25;102165.28;;;14.38;100.00
55916;BME280;41826;53.246;-6.670;2022-07-10T04:30:51;102165.56;;;14.45;100.00
55916;BME280;41826;53.246;-6.670;2022-07-10T04:33:16;102162.81;;;14.25;100.00
55916;BME280;41826;53.246;-6.670;2022-07-10T04:35:42;102162.63;;;14.38;100.00
55916;BME280;41826;53.246;-6.670;2022-07-10T04:38:07;102156.81;;;14.44;100.00
55916;BME280;41826;53.246;-6.670;2022-07-10T04:40:33;102147.88;;;14.36;100.00
55916;BME280;41826;53.246;-6.670;2022-07-10T04:42:58;102146.94;;;14.46;100.00
55916;BME280;41826;53.246;-6.670;2022-07-10T04:45:23;102137.22;;;14.16;100.00
55916;BME280;41826;53.246;-6.670;2022-07-10T04:47:49;102134.63;;;14.26;100.00
55916;BME280;41826;53.246;-6.670;2022-07-10T04:50:14;102138.00;;;14.07;100.00
55916;BME280;41826;53.246;-6.670;2022-07-10T04:52:40;102138.44;;;14.12;100.00
55916;BME280;41826;53.246;-6.670;2022-07-10T04:55:05;102136.47;;;14.04;100.00
55916;BME280;41826;53.246;-6.670;2022-07-10T04:57:31;102141.88;;;14.03;100.00
55916;BME280;41826;53.246;-6.670;2022-07-10T04:59:56;102143.72;;;14.12;100.00
55916;BME280;41826;53.246;-6.670;2022-07-10T05:02:22;102139.38;;;14.01;100.00
55916;BME280;41826;53.246;-6.670;2022-07-10T05:04:48;102134.31;;;14.19;100.00
55916;BME280;41826;53.246;-6.670;2022-07-10T05:07:13;102136.22;;;14.48;100.00
55916;BME280;41826;53.246;-6.670;2022-07-10T05:09:39;102146.81;;;14.48;100.00
55916;BME280;41826;53.246;-6.670;2022-07-10T05:12:05;102137.34;;;14.86;100.00
55916;BME280;41826;53.246;-6.670;2022-07-10T05:14:31;102132.63;;;14.89;100.00
55916;BME280;41826;53.246;-6.670;2022-07-10T05:16:56;102132.25;;;15.33;100.00
55916;BME280;41826;53.246;-6.670;2022-07-10T05:19:22;102114.28;;;15.56;100.00
55916;BME280;41826;53.246;-6.670;2022-07-10T05:21:48;102109.50;;;15.89;100.00
55916;BME280;41826;53.246;-6.670;2022-07-10T05:24:13;102102.31;;;16.09;100.00
55916;BME280;41826;53.246;-6.670;2022-07-10T05:26:39;102095.34;;;16.63;100.00
55916;BME280;41826;53.246;-6.670;2022-07-10T05:29:04;102080.63;;;16.96;100.00
55916;BME280;41826;53.246;-6.670;2022-07-10T05:31:29;102060.94;;;17.17;100.00
55916;BME280;41826;53.246;-6.670;2022-07-10T05:33:55;102056.72;;;17.50;100.00
55916;BME280;41826;53.246;-6.670;2022-07-10T05:36:20;102041.50;;;17.60;100.00
55916;BME280;41826;53.246;-6.670;2022-07-10T05:38:46;102044.09;;;17.78;100.00
55916;BME280;41826;53.246;-6.670;2022-07-10T05:41:11;102047.41;;;18.06;100.00
55916;BME280;41826;53.246;-6.670;2022-07-10T05:43:37;102041.88;;;18.34;100.00
55916;BME280;41826;53.246;-6.670;2022-07-10T05:46:02;102034.38;;;18.29;100.00
55916;BME280;41826;53.246;-6.670;2022-07-10T05:48:27;102041.75;;;18.52;100.00
55916;BME280;41826;53.246;-6.670;2022-07-10T05:50:53;102040.28;;;18.66;100.00
55916;BME280;41826;53.246;-6.670;2022-07-10T05:53:18;102034.66;;;18.69;100.00
55916;BME280;41826;53.246;-6.670;2022-07-10T05:55:46;102048.22;;;18.49;100.00
55916;BME280;41826;53.246;-6.670;2022-07-10T05:58:12;102044.69;;;18.40;100.00
55916;BME280;41826;53.246;-6.670;2022-07-10T06:00:38;102050.09;;;18.73;100.00
55916;BME280;41826;53.246;-6.670;2022-07-10T06:03:03;102039.66;;;18.80;100.00
55916;BME280;41826;53.246;-6.670;2022-07-10T06:05:28;102029.22;;;19.19;100.00
55916;BME280;41826;53.246;-6.670;2022-07-10T06:07:54;102037.94;;;18.46;100.00
55916;BME280;41826;53.246;-6.670;2022-07-10T06:10:19;102038.63;;;18.73;100.00
55916;BME280;41826;53.246;-6.670;2022-07-10T06:12:45;102035.34;;;18.87;100.00
55916;BME280;41826;53.246;-6.670;2022-07-10T06:15:10;102046.88;;;18.37;100.00
55916;BME280;41826;53.246;-6.670;2022-07-10T06:17:36;102062.34;;;18.41;100.00
55916;BME280;41826;53.246;-6.670;2022-07-10T06:20:02;102043.34;;;19.20;100.00
55916;BME280;41826;53.246;-6.670;2022-07-10T06:22:27;102047.66;;;18.80;100.00
55916;BME280;41826;53.246;-6.670;2022-07-10T06:24:59;102038.00;;;19.03;100.00
55916;BME280;41826;53.246;-6.670;2022-07-10T06:27:25;102036.69;;;18.99;100.00
55916;BME280;41826;53.246;-6.670;2022-07-10T06:29:50;102030.78;;;19.61;100.00
55916;BME280;41826;53.246;-6.670;2022-07-10T06:32:16;102017.03;;;20.05;100.00
55916;BME280;41826;53.246;-6.670;2022-07-10T06:34:41;102028.38;;;18.94;100.00
55916;BME280;41826;53.246;-6.670;2022-07-10T06:37:07;102026.69;;;19.26;100.00
55916;BME280;41826;53.246;-6.670;2022-07-10T06:39:33;102027.47;;;19.51;100.00
55916;BME280;41826;53.246;-6.670;2022-07-10T06:42:01;102027.25;;;19.85;100.00
55916;BME280;41826;53.246;-6.670;2022-07-10T06:44:27;102022.94;;;20.24;100.00
55916;BME280;41826;53.246;-6.670;2022-07-10T06:46:52;102010.78;;;20.21;100.00
55916;BME280;41826;53.246;-6.670;2022-07-10T06:49:36;102007.16;;;20.68;100.00
55916;BME280;41826;53.246;-6.670;2022-07-10T06:52:02;102009.91;;;20.52;100.00
55916;BME280;41826;53.246;-6.670;2022-07-10T06:54:27;102019.00;;;19.56;100.00
55916;BME280;41826;53.246;-6.670;2022-07-10T06:56:53;102034.97;;;20.11;100.00
55916;BME280;41826;53.246;-6.670;2022-07-10T06:59:18;102015.88;;;20.62;100.00
55916;BME280;41826;53.246;-6.670;2022-07-10T07:01:44;102007.75;;;20.78;100.00
55916;BME280;41826;53.246;-6.670;2022-07-10T07:04:10;102018.47;;;20.16;100.00
55916;BME280;41826;53.246;-6.670;2022-07-10T07:06:36;102007.50;;;20.88;100.00
55916;BME280;41826;53.246;-6.670;2022-07-10T07:09:02;102008.38;;;21.41;100.00
55916;BME280;41826;53.246;-6.670;2022-07-10T07:11:27;102010.00;;;21.28;100.00
55916;BME280;41826;53.246;-6.670;2022-07-10T07:13:53;102003.78;;;21.50;100.00
55916;BME280;41826;53.246;-6.670;2022-07-10T07:16:18;102005.81;;;21.48;100.00
55916;BME280;41826;53.246;-6.670;2022-07-10T07:18:45;101999.69;;;21.25;100.00
55916;BME280;41826;53.246;-6.670;2022-07-10T07:21:17;102001.03;;;21.20;100.00
55916;BME280;41826;53.246;-6.670;2022-07-10T07:24:01;102004.13;;;20.94;100.00
55916;BME280;41826;53.246;-6.670;2022-07-10T07:26:26;102003.34;;;21.24;100.00
55916;BME280;41826;53.246;-6.670;2022-07-10T07:28:52;101995.03;;;21.56;100.00
55916;BME280;41826;53.246;-6.670;2022-07-10T07:31:17;101996.25;;;20.78;100.00
55916;BME280;41826;53.246;-6.670;2022-07-10T07:33:43;102008.88;;;21.37;100.00
55916;BME280;41826;53.246;-6.670;2022-07-10T07:36:09;101992.03;;;22.11;100.00
55916;BME280;41826;53.246;-6.670;2022-07-10T07:38:34;101991.22;;;21.36;100.00
55916;BME280;41826;53.246;-6.670;2022-07-10T07:40:59;101991.34;;;20.67;100.00
55916;BME280;41826;53.246;-6.670;2022-07-10T07:43:26;102005.56;;;19.97;100.00
55916;BME280;41826;53.246;-6.670;2022-07-10T07:45:51;101998.91;;;20.55;100.00
55916;BME280;41826;53.246;-6.670;2022-07-10T07:48:16;101994.44;;;20.47;100.00
55916;BME280;41826;53.246;-6.670;2022-07-10T07:50:42;101995.09;;;20.95;100.00
55916;BME280;41826;53.246;-6.670;2022-07-10T07:53:07;101986.81;;;21.43;100.00
55916;BME280;41826;53.246;-6.670;2022-07-10T07:55:34;101984.88;;;21.52;100.00
55916;BME280;41826;53.246;-6.670;2022-07-10T07:57:59;101982.25;;;21.29;100.00
55916;BME280;41826;53.246;-6.670;2022-07-10T08:00:29;101982.03;;;21.38;100.00
55916;BME280;41826;53.246;-6.670;2022-07-10T08:02:56;101986.50;;;21.38;100.00
55916;BME280;41826;53.246;-6.670;2022-07-10T08:05:22;101986.84;;;21.58;100.00
55916;BME280;41826;53.246;-6.670;2022-07-10T08:07:58;101981.22;;;21.00;100.00
55916;BME280;41826;53.246;-6.670;2022-07-10T08:10:31;101971.88;;;21.93;100.00
55916;BME280;41826;53.246;-6.670;2022-07-10T08:12:57;101972.56;;;22.02;100.00
55916;BME280;41826;53.246;-6.670;2022-07-10T08:15:23;101969.06;;;22.38;100.00
55916;BME280;41826;53.246;-6.670;2022-07-10T08:17:50;101975.09;;;21.74;100.00
55916;BME280;41826;53.246;-6.670;2022-07-10T08:20:16;101974.09;;;21.75;100.00
55916;BME280;41826;53.246;-6.670;2022-07-10T08:22:42;101972.47;;;22.46;100.00
55916;BME280;41826;53.246;-6.670;2022-07-10T08:25:09;101953.28;;;22.64;100.00
55916;BME280;41826;53.246;-6.670;2022-07-10T08:27:35;101968.13;;;21.73;100.00
55916;BME280;41826;53.246;-6.670;2022-07-10T08:30:00;101963.78;;;21.72;100.00
55916;BME280;41826;53.246;-6.670;2022-07-10T08:32:26;101954.16;;;22.71;100.00
55916;BME280;41826;53.246;-6.670;2022-07-10T08:34:52;101955.69;;;23.09;100.00
55916;BME280;41826;53.246;-6.670;2022-07-10T08:37:18;101956.84;;;23.63;100.00
55916;BME280;41826;53.246;-6.670;2022-07-10T08:39:45;101954.28;;;23.13;100.00
55916;BME280;41826;53.246;-6.670;2022-07-10T08:42:11;101963.00;;;23.98;100.00
55916;BME280;41826;53.246;-6.670;2022-07-10T08:44:37;101956.25;;;24.35;100.00
55916;BME280;41826;53.246;-6.670;2022-07-10T08:47:03;101947.66;;;24.67;100.00
55916;BME280;41826;53.246;-6.670;2022-07-10T08:49:30;101951.34;;;24.46;100.00
55916;BME280;41826;53.246;-6.670;2022-07-10T08:52:08;101953.88;;;23.86;100.00
55916;BME280;41826;53.246;-6.670;2022-07-10T08:54:34;101950.41;;;23.98;100.00
55916;BME280;41826;53.246;-6.670;2022-07-10T08:57:01;101946.84;;;23.85;100.00
55916;BME280;41826;53.246;-6.670;2022-07-10T08:59:28;101945.09;;;24.25;100.00
55916;BME280;41826;53.246;-6.670;2022-07-10T09:01:54;101933.44;;;23.85;100.00
55916;BME280;41826;53.246;-6.670;2022-07-10T09:04:22;101940.25;;;23.46;100.00
55916;BME280;41826;53.246;-6.670;2022-07-10T09:06:48;101939.50;;;23.24;100.00
55916;BME280;41826;53.246;-6.670;2022-07-10T09:09:13;101938.94;;;23.28;100.00
55916;BME280;41826;53.246;-6.670;2022-07-10T09:11:40;101940.03;;;23.41;100.00
55916;BME280;41826;53.246;-6.670;2022-07-10T09:14:08;101938.88;;;22.93;100.00
55916;BME280;41826;53.246;-6.670;2022-07-10T09:16:37;101933.91;;;23.12;100.00
55916;BME280;41826;53.246;-6.670;2022-07-10T09:21:47;101922.75;;;24.05;100.00
55916;BME280;41826;53.246;-6.670;2022-07-10T09:24:14;101918.34;;;23.35;100.00
55916;BME280;41826;53.246;-6.670;2022-07-10T09:26:40;101926.75;;;21.90;100.00
55916;BME280;41826;53.246;-6.670;2022-07-10T09:29:07;101913.59;;;22.46;100.00
55916;BME280;41826;53.246;-6.670;2022-07-10T09:31:55;101911.31;;;23.34;100.00
55916;BME280;41826;53.246;-6.670;2022-07-10T09:34:39;101905.03;;;23.14;100.00
55916;BME280;41826;53.246;-6.670;2022-07-10T09:47:54;101880.50;;;24.40;100.00
55916;BME280;41826;53.246;-6.670;2022-07-10T09:50:33;101884.00;;;24.87;100.00
55916;BME280;41826;53.246;-6.670;2022-07-10T09:53:01;101887.44;;;23.81;100.00
55916;BME280;41826;53.246;-6.670;2022-07-10T09:55:28;101890.00;;;23.13;100.00
55916;BME280;41826;53.246;-6.670;2022-07-10T10:00:26;101878.66;;;22.33;100.00
55916;BME280;41826;53.246;-6.670;2022-07-10T10:02:55;101884.88;;;22.90;100.00
55916;BME280;41826;53.246;-6.670;2022-07-10T10:05:26;101880.41;;;23.32;100.00
55916;BME280;41826;53.246;-6.670;2022-07-10T10:07:53;101869.50;;;23.95;100.00
55916;BME280;41826;53.246;-6.670;2022-07-10T10:10:19;101870.38;;;24.55;100.00
55916;BME280;41826;53.246;-6.670;2022-07-10T10:12:54;101879.38;;;25.14;100.00
55916;BME280;41826;53.246;-6.670;2022-07-10T10:15:22;101872.97;;;25.08;100.00
55916;BME280;41826;53.246;-6.670;2022-07-10T10:17:50;101879.47;;;24.48;100.00
55916;BME280;41826;53.246;-6.670;2022-07-10T10:20:16;101880.88;;;24.17;100.00
55916;BME280;41826;53.246;-6.670;2022-07-10T10:23:01;101884.81;;;24.87;100.00
55916;BME280;41826;53.246;-6.670;2022-07-10T10:25:28;101883.00;;;24.55;100.00
55916;BME280;41826;53.246;-6.670;2022-07-10T10:27:58;101887.88;;;23.02;100.00
55916;BME280;41826;53.246;-6.670;2022-07-10T10:30:24;101890.69;;;22.65;100.00
55916;BME280;41826;53.246;-6.670;2022-07-10T10:32:50;101876.97;;;23.03;100.00
55916;BME280;41826;53.246;-6.670;2022-07-10T10:35:44;101877.34;;;23.00;100.00
55916;BME280;41826;53.246;-6.670;2022-07-10T10:38:13;101876.53;;;23.41;100.00
55916;BME280;41826;53.246;-6.670;2022-07-10T10:40:39;101860.66;;;24.01;100.00
55916;BME280;41826;53.246;-6.670;2022-07-10T10:43:21;101866.66;;;24.16;100.00
55916;BME280;41826;53.246;-6.670;2022-07-10T10:45:48;101866.41;;;23.91;100.00
55916;BME280;41826;53.246;-6.670;2022-07-10T10:48:15;101871.94;;;23.76;100.00
55916;BME280;41826;53.246;-6.670;2022-07-10T10:55:41;101865.53;;;25.11;100.00
55916;BME280;41826;53.246;-6.670;2022-07-10T10:58:17;101862.94;;;24.37;100.00
55916;BME280;41826;53.246;-6.670;2022-07-10T11:00:43;101860.16;;;23.77;100.00
55916;BME280;41826;53.246;-6.670;2022-07-10T11:03:20;101860.63;;;23.88;100.00
55916;BME280;41826;53.246;-6.670;2022-07-10T11:05:47;101851.25;;;23.64;100.00
55916;BME280;41826;53.246;-6.670;2022-07-10T11:08:13;101848.06;;;24.15;100.00
55916;BME280;41826;53.246;-6.670;2022-07-10T11:10:44;101845.53;;;23.80;100.00
55916;BME280;41826;53.246;-6.670;2022-07-10T11:13:18;101845.41;;;23.40;100.00
55916;BME280;41826;53.246;-6.670;2022-07-10T11:15:48;101838.13;;;23.75;100.00
55916;BME280;41826;53.246;-6.670;2022-07-10T11:18:15;101837.50;;;23.87;100.00
55916;BME280;41826;53.246;-6.670;2022-07-10T11:20:46;101827.47;;;24.49;100.00
55916;BME280;41826;53.246;-6.670;2022-07-10T11:26:13;101828.66;;;24.66;100.00
55916;BME280;41826;53.246;-6.670;2022-07-10T11:28:54;101822.53;;;25.11;100.00
55916;BME280;41826;53.246;-6.670;2022-07-10T11:31:21;101818.81;;;25.18;100.00
55916;BME280;41826;53.246;-6.670;2022-07-10T11:33:49;101828.59;;;24.99;100.00
55916;BME280;41826;53.246;-6.670;2022-07-10T11:36:26;101830.31;;;24.67;100.00
55916;BME280;41826;53.246;-6.670;2022-07-10T11:39:01;101823.41;;;25.49;100.00
55916;BME280;41826;53.246;-6.670;2022-07-10T11:41:27;101817.22;;;25.87;100.00
55916;BME280;41826;53.246;-6.670;2022-07-10T11:44:00;101806.84;;;25.91;100.00
55916;BME280;41826;53.246;-6.670;2022-07-10T11:46:28;101812.28;;;26.59;100.00
55916;BME280;41826;53.246;-6.670;2022-07-10T11:48:54;101818.34;;;26.73;100.00
55916;BME280;41826;53.246;-6.670;2022-07-10T11:51:26;101822.41;;;26.14;100.00
55916;BME280;41826;53.246;-6.670;2022-07-10T11:54:04;101818.09;;;25.43;100.00
55916;BME280;41826;53.246;-6.670;2022-07-10T11:56:31;101811.53;;;24.20;100.00
55916;BME280;41826;53.246;-6.670;2022-07-10T11:59:06;101803.03;;;25.67;100.00
55916;BME280;41826;53.246;-6.670;2022-07-10T12:01:34;101810.28;;;26.92;100.00
55916;BME280;41826;53.246;-6.670;2022-07-10T12:04:02;101804.09;;;25.98;100.00
55916;BME280;41826;53.246;-6.670;2022-07-10T12:06:29;101795.16;;;25.72;100.00
55916;BME280;41826;53.246;-6.670;2022-07-10T12:08:55;101799.34;;;25.68;100.00
55916;BME280;41826;53.246;-6.670;2022-07-10T12:11:22;101806.00;;;25.59;100.00
55916;BME280;41826;53.246;-6.670;2022-07-10T12:13:50;101801.81;;;25.31;100.00
55916;BME280;41826;53.246;-6.670;2022-07-10T12:16:16;101795.03;;;25.60;100.00
55916;BME280;41826;53.246;-6.670;2022-07-10T12:18:42;101797.97;;;25.07;100.00
55916;BME280;41826;53.246;-6.670;2022-07-10T12:21:09;101794.19;;;23.83;100.00
55916;BME280;41826;53.246;-6.670;2022-07-10T12:23:35;101791.09;;;24.19;100.00
55916;BME280;41826;53.246;-6.670;2022-07-10T12:26:04;101788.41;;;24.33;100.00
55916;BME280;41826;53.246;-6.670;2022-07-10T12:28:29;101788.13;;;24.81;100.00
55916;BME280;41826;53.246;-6.670;2022-07-10T12:30:55;101780.31;;;25.24;100.00
55916;BME280;41826;53.246;-6.670;2022-07-10T12:33:23;101783.59;;;24.81;100.00
55916;BME280;41826;53.246;-6.670;2022-07-10T12:35:54;101788.38;;;25.31;100.00
55916;BME280;41826;53.246;-6.670;2022-07-10T12:38:27;101772.69;;;26.16;100.00
55916;BME280;41826;53.246;-6.670;2022-07-10T12:41:10;101780.03;;;26.03;100.00
55916;BME280;41826;53.246;-6.670;2022-07-10T12:43:36;101769.94;;;26.67;100.00
55916;BME280;41826;53.246;-6.670;2022-07-10T12:46:27;101769.81;;;25.23;100.00
55916;BME280;41826;53.246;-6.670;2022-07-10T12:49:25;101763.16;;;25.96;100.00
55916;BME280;41826;53.246;-6.670;2022-07-10T12:51:50;101766.25;;;24.84;100.00
55916;BME280;41826;53.246;-6.670;2022-07-10T12:54:36;101758.38;;;26.41;100.00